sensor_id;sensor_type;location;lat;lon;timestamp;P1;durP1;ratioP1;P2;durP2;ratioP2
21258;SDS011;10787;53.364;-1.480;2022-08-20T00:00:24;5.68;;;2.05;;
21258;SDS011;10787;53.364;-1.480;2022-08-20T00:02:53;5.50;;;2.00;;
21258;SDS011;10787;53.364;-1.480;2022-08-20T00:05:31;6.47;;;2.08;;
21258;SDS011;10787;53.364;-1.480;2022-08-20T00:08:01;7.93;;;2.33;;
21258;SDS011;10787;53.364;-1.480;2022-08-20T00:10:29;6.82;;;2.28;;
21258;SDS011;10787;53.364;-1.480;2022-08-20T00:12:56;7.20;;;2.25;;
21258;SDS011;10787;53.364;-1.480;2022-08-20T00:15:25;6.28;;;2.00;;
21258;SDS011;10787;53.364;-1.480;2022-08-20T00:17:53;9.18;;;2.20;;
21258;SDS011;10787;53.364;-1.480;2022-08-20T00:20:20;8.82;;;2.40;;
21258;SDS011;10787;53.364;-1.480;2022-08-20T00:22:48;8.43;;;2.38;;
21258;SDS011;10787;53.364;-1.480;2022-08-20T00:25:15;10.18;;;2.50;;
21258;SDS011;10787;53.364;-1.480;2022-08-20T00:27:41;7.50;;;2.08;;
21258;SDS011;10787;53.364;-1.480;2022-08-20T00:30:08;10.07;;;2.58;;
21258;SDS011;10787;53.364;-1.480;2022-08-20T00:32:43;10.15;;;2.80;;
21258;SDS011;10787;53.364;-1.480;2022-08-20T00:35:09;8.55;;;2.67;;
21258;SDS011;10787;53.364;-1.480;2022-08-20T00:37:35;10.20;;;2.40;;
21258;SDS011;10787;53.364;-1.480;2022-08-20T00:40:03;9.30;;;2.35;;
21258;SDS011;10787;53.364;-1.480;2022-08-20T00:42:30;6.07;;;2.17;;
21258;SDS011;10787;53.364;-1.480;2022-08-20T00:45:05;6.70;;;2.30;;
21258;SDS011;10787;53.364;-1.480;2022-08-20T00:47:32;7.47;;;2.20;;
21258;SDS011;10787;53.364;-1.480;2022-08-20T00:49:58;8.38;;;2.40;;
21258;SDS011;10787;53.364;-1.480;2022-08-20T00:52:24;12.07;;;2.55;;
21258;SDS011;10787;53.364;-1.480;2022-08-20T00:54:54;9.13;;;2.60;;
21258;SDS011;10787;53.364;-1.480;2022-08-20T00:57:31;9.98;;;2.33;;
21258;SDS011;10787;53.364;-1.480;2022-08-20T01:00:03;9.25;;;2.40;;
21258;SDS011;10787;53.364;-1.480;2022-08-20T01:02:34;10.20;;;2.55;;
21258;SDS011;10787;53.364;-1.480;2022-08-20T01:04:59;10.60;;;2.55;;
21258;SDS011;10787;53.364;-1.480;2022-08-20T01:07:26;8.90;;;2.53;;
21258;SDS011;10787;53.364;-1.480;2022-08-20T01:09:58;9.82;;;2.58;;
21258;SDS011;10787;53.364;-1.480;2022-08-20T01:12:26;9.30;;;2.47;;
21258;SDS011;10787;53.364;-1.480;2022-08-20T01:14:53;8.68;;;2.35;;
21258;SDS011;10787;53.364;-1.480;2022-08-20T01:17:22;10.25;;;2.60;;
21258;SDS011;10787;53.364;-1.480;2022-08-20T01:20:05;11.10;;;2.67;;
21258;SDS011;10787;53.364;-1.480;2022-08-20T01:28:46;11.02;;;2.53;;
21258;SDS011;10787;53.364;-1.480;2022-08-20T01:31:29;10.45;;;2.70;;
21258;SDS011;10787;53.364;-1.480;2022-08-20T01:33:59;10.93;;;2.75;;
21258;SDS011;10787;53.364;-1.480;2022-08-20T01:36:28;8.27;;;2.58;;
21258;SDS011;10787;53.364;-1.480;2022-08-20T01:38:58;9.75;;;2.65;;
21258;SDS011;10787;53.364;-1.480;2022-08-20T01:41:29;10.30;;;2.72;;
21258;SDS011;10787;53.364;-1.480;2022-08-20T01:44:09;8.65;;;2.90;;
21258;SDS011;10787;53.364;-1.480;2022-08-20T01:46:38;9.88;;;2.95;;
21258;SDS011;10787;53.364;-1.480;2022-08-20T01:49:10;10.32;;;2.40;;
21258;SDS011;10787;53.364;-1.480;2022-08-20T01:51:48;8.27;;;2.40;;
21258;SDS011;10787;53.364;-1.480;2022-08-20T01:54:15;11.05;;;2.63;;
21258;SDS011;10787;53.364;-1.480;2022-08-20T01:59:18;9.68;;;2.50;;
21258;SDS011;10787;53.364;-1.480;2022-08-20T02:01:44;10.50;;;2.70;;
21258;SDS011;10787;53.364;-1.480;2022-08-20T02:04:14;8.77;;;2.80;;
21258;SDS011;10787;53.364;-1.480;2022-08-20T02:06:59;10.88;;;2.70;;
21258;SDS011;10787;53.364;-1.480;2022-08-20T02:09:29;9.15;;;2.70;;
21258;SDS011;10787;53.364;-1.480;2022-08-20T02:11:57;10.18;;;2.78;;
21258;SDS011;10787;53.364;-1.480;2022-08-20T02:14:25;9.00;;;2.30;;
21258;SDS011;10787;53.364;-1.480;2022-08-20T02:16:51;8.73;;;2.60;;
21258;SDS011;10787;53.364;-1.480;2022-08-20T02:19:19;7.95;;;2.50;;
21258;SDS011;10787;53.364;-1.480;2022-08-20T02:21:53;8.90;;;2.58;;
21258;SDS011;10787;53.364;-1.480;2022-08-20T02:24:22;8.90;;;2.50;;
21258;SDS011;10787;53.364;-1.480;2022-08-20T02:26:48;10.57;;;2.80;;
21258;SDS011;10787;53.364;-1.480;2022-08-20T02:29:15;11.63;;;2.90;;
21258;SDS011;10787;53.364;-1.480;2022-08-20T02:31:41;8.90;;;2.90;;
21258;SDS011;10787;53.364;-1.480;2022-08-20T02:34:12;15.65;;;3.67;;
21258;SDS011;10787;53.364;-1.480;2022-08-20T02:36:39;10.00;;;2.88;;
21258;SDS011;10787;53.364;-1.480;2022-08-20T02:39:09;11.18;;;3.03;;
21258;SDS011;10787;53.364;-1.480;2022-08-20T02:41:37;10.43;;;3.15;;
21258;SDS011;10787;53.364;-1.480;2022-08-20T02:44:03;11.77;;;2.92;;
21258;SDS011;10787;53.364;-1.480;2022-08-20T02:46:30;9.82;;;2.95;;
21258;SDS011;10787;53.364;-1.480;2022-08-20T02:48:57;9.38;;;2.95;;
21258;SDS011;10787;53.364;-1.480;2022-08-20T02:51:23;10.88;;;2.83;;
21258;SDS011;10787;53.364;-1.480;2022-08-20T02:53:49;10.05;;;3.00;;
21258;SDS011;10787;53.364;-1.480;2022-08-20T02:56:16;8.98;;;2.67;;
21258;SDS011;10787;53.364;-1.480;2022-08-20T02:58:42;9.53;;;2.50;;
21258;SDS011;10787;53.364;-1.480;2022-08-20T03:01:10;8.43;;;2.97;;
21258;SDS011;10787;53.364;-1.480;2022-08-20T03:03:38;9.20;;;3.13;;
21258;SDS011;10787;53.364;-1.480;2022-08-20T03:06:06;9.30;;;3.00;;
21258;SDS011;10787;53.364;-1.480;2022-08-20T03:08:34;10.37;;;3.10;;
21258;SDS011;10787;53.364;-1.480;2022-08-20T03:11:00;11.88;;;3.15;;
21258;SDS011;10787;53.364;-1.480;2022-08-20T03:13:26;10.82;;;3.40;;
21258;SDS011;10787;53.364;-1.480;2022-08-20T03:15:53;10.90;;;3.00;;
21258;SDS011;10787;53.364;-1.480;2022-08-20T03:18:22;8.43;;;2.90;;
21258;SDS011;10787;53.364;-1.480;2022-08-20T03:20:49;8.80;;;2.70;;
21258;SDS011;10787;53.364;-1.480;2022-08-20T03:23:17;8.50;;;3.30;;
21258;SDS011;10787;53.364;-1.480;2022-08-20T03:25:44;9.70;;;3.03;;
21258;SDS011;10787;53.364;-1.480;2022-08-20T03:28:10;10.30;;;3.20;;
21258;SDS011;10787;53.364;-1.480;2022-08-20T03:30:37;9.13;;;3.20;;
21258;SDS011;10787;53.364;-1.480;2022-08-20T03:33:04;8.05;;;3.28;;
21258;SDS011;10787;53.364;-1.480;2022-08-20T03:35:32;9.07;;;3.15;;
21258;SDS011;10787;53.364;-1.480;2022-08-20T03:37:59;12.45;;;3.40;;
21258;SDS011;10787;53.364;-1.480;2022-08-20T03:40:26;9.27;;;3.30;;
21258;SDS011;10787;53.364;-1.480;2022-08-20T03:42:54;9.88;;;3.30;;
21258;SDS011;10787;53.364;-1.480;2022-08-20T03:45:22;10.27;;;3.40;;
21258;SDS011;10787;53.364;-1.480;2022-08-20T03:47:49;11.18;;;3.60;;
21258;SDS011;10787;53.364;-1.480;2022-08-20T03:50:18;8.40;;;3.25;;
21258;SDS011;10787;53.364;-1.480;2022-08-20T03:52:45;12.73;;;3.60;;
21258;SDS011;10787;53.364;-1.480;2022-08-20T03:55:12;12.02;;;3.30;;
21258;SDS011;10787;53.364;-1.480;2022-08-20T03:57:48;8.53;;;3.13;;
21258;SDS011;10787;53.364;-1.480;2022-08-20T04:00:24;8.33;;;3.10;;
21258;SDS011;10787;53.364;-1.480;2022-08-20T04:02:52;9.98;;;2.97;;
21258;SDS011;10787;53.364;-1.480;2022-08-20T04:05:22;10.05;;;3.20;;
21258;SDS011;10787;53.364;-1.480;2022-08-20T04:07:48;8.52;;;3.20;;
21258;SDS011;10787;53.364;-1.480;2022-08-20T04:10:15;8.77;;;3.22;;
21258;SDS011;10787;53.364;-1.480;2022-08-20T04:12:41;9.40;;;3.38;;
21258;SDS011;10787;53.364;-1.480;2022-08-20T04:15:08;10.95;;;3.38;;
21258;SDS011;10787;53.364;-1.480;2022-08-20T04:17:40;13.70;;;3.67;;
21258;SDS011;10787;53.364;-1.480;2022-08-20T04:20:08;9.27;;;3.47;;
21258;SDS011;10787;53.364;-1.480;2022-08-20T04:22:36;9.67;;;3.40;;
21258;SDS011;10787;53.364;-1.480;2022-08-20T04:25:03;11.63;;;3.28;;
21258;SDS011;10787;53.364;-1.480;2022-08-20T04:27:30;11.43;;;3.65;;
21258;SDS011;10787;53.364;-1.480;2022-08-20T04:30:00;10.30;;;3.55;;
21258;SDS011;10787;53.364;-1.480;2022-08-20T04:32:28;15.50;;;3.47;;
21258;SDS011;10787;53.364;-1.480;2022-08-20T04:34:54;12.18;;;3.47;;
21258;SDS011;10787;53.364;-1.480;2022-08-20T04:37:20;11.07;;;3.53;;
21258;SDS011;10787;53.364;-1.480;2022-08-20T04:39:48;8.80;;;3.25;;
21258;SDS011;10787;53.364;-1.480;2022-08-20T04:42:36;8.85;;;3.30;;
21258;SDS011;10787;53.364;-1.480;2022-08-20T04:45:03;10.13;;;3.27;;
21258;SDS011;10787;53.364;-1.480;2022-08-20T04:47:31;11.95;;;3.60;;
21258;SDS011;10787;53.364;-1.480;2022-08-20T04:49:57;9.40;;;3.30;;
21258;SDS011;10787;53.364;-1.480;2022-08-20T04:52:26;11.57;;;3.50;;
21258;SDS011;10787;53.364;-1.480;2022-08-20T04:54:53;10.25;;;3.38;;
21258;SDS011;10787;53.364;-1.480;2022-08-20T04:57:24;9.32;;;3.08;;
21258;SDS011;10787;53.364;-1.480;2022-08-20T04:59:51;9.73;;;2.90;;
21258;SDS011;10787;53.364;-1.480;2022-08-20T05:02:18;11.48;;;3.17;;
21258;SDS011;10787;53.364;-1.480;2022-08-20T05:04:45;13.23;;;3.15;;
21258;SDS011;10787;53.364;-1.480;2022-08-20T05:07:13;9.52;;;3.38;;
21258;SDS011;10787;53.364;-1.480;2022-08-20T05:09:41;10.70;;;3.10;;
21258;SDS011;10787;53.364;-1.480;2022-08-20T05:12:08;12.52;;;3.22;;
21258;SDS011;10787;53.364;-1.480;2022-08-20T05:14:35;9.93;;;3.20;;
21258;SDS011;10787;53.364;-1.480;2022-08-20T05:17:01;13.38;;;3.13;;
21258;SDS011;10787;53.364;-1.480;2022-08-20T05:19:29;7.97;;;2.95;;
21258;SDS011;10787;53.364;-1.480;2022-08-20T05:21:55;9.73;;;3.30;;
21258;SDS011;10787;53.364;-1.480;2022-08-20T05:24:22;9.32;;;3.25;;
21258;SDS011;10787;53.364;-1.480;2022-08-20T05:26:48;10.63;;;3.20;;
21258;SDS011;10787;53.364;-1.480;2022-08-20T05:29:15;10.43;;;3.15;;
21258;SDS011;10787;53.364;-1.480;2022-08-20T05:31:41;10.32;;;3.25;;
21258;SDS011;10787;53.364;-1.480;2022-08-20T05:34:09;12.80;;;3.33;;
21258;SDS011;10787;53.364;-1.480;2022-08-20T05:36:40;13.07;;;3.10;;
21258;SDS011;10787;53.364;-1.480;2022-08-20T05:39:09;8.40;;;2.90;;
21258;SDS011;10787;53.364;-1.480;2022-08-20T05:41:36;10.47;;;3.00;;
21258;SDS011;10787;53.364;-1.480;2022-08-20T05:44:03;7.07;;;2.88;;
21258;SDS011;10787;53.364;-1.480;2022-08-20T05:46:29;10.45;;;2.97;;
21258;SDS011;10787;53.364;-1.480;2022-08-20T05:48:55;10.75;;;3.40;;
21258;SDS011;10787;53.364;-1.480;2022-08-20T05:51:21;11.80;;;3.28;;
21258;SDS011;10787;53.364;-1.480;2022-08-20T05:53:47;7.35;;;3.38;;
21258;SDS011;10787;53.364;-1.480;2022-08-20T05:56:13;10.13;;;3.22;;
21258;SDS011;10787;53.364;-1.480;2022-08-20T05:58:39;12.77;;;3.13;;
21258;SDS011;10787;53.364;-1.480;2022-08-20T06:01:04;8.32;;;3.08;;
21258;SDS011;10787;53.364;-1.480;2022-08-20T06:03:30;9.43;;;2.97;;
21258;SDS011;10787;53.364;-1.480;2022-08-20T06:06:15;12.63;;;3.03;;
21258;SDS011;10787;53.364;-1.480;2022-08-20T06:08:40;10.45;;;3.25;;
21258;SDS011;10787;53.364;-1.480;2022-08-20T06:11:07;7.82;;;2.63;;
21258;SDS011;10787;53.364;-1.480;2022-08-20T06:13:33;10.73;;;3.10;;
21258;SDS011;10787;53.364;-1.480;2022-08-20T06:15:59;7.95;;;2.83;;
21258;SDS011;10787;53.364;-1.480;2022-08-20T06:18:25;11.35;;;3.35;;
21258;SDS011;10787;53.364;-1.480;2022-08-20T06:20:51;10.73;;;2.92;;
21258;SDS011;10787;53.364;-1.480;2022-08-20T06:23:17;11.05;;;2.97;;
21258;SDS011;10787;53.364;-1.480;2022-08-20T06:25:43;12.30;;;3.45;;
21258;SDS011;10787;53.364;-1.480;2022-08-20T06:28:09;9.57;;;3.00;;
21258;SDS011;10787;53.364;-1.480;2022-08-20T06:30:37;8.02;;;2.92;;
21258;SDS011;10787;53.364;-1.480;2022-08-20T06:33:03;8.95;;;2.92;;
21258;SDS011;10787;53.364;-1.480;2022-08-20T06:35:28;7.53;;;2.88;;
21258;SDS011;10787;53.364;-1.480;2022-08-20T06:37:54;10.35;;;3.15;;
21258;SDS011;10787;53.364;-1.480;2022-08-20T06:40:24;8.63;;;3.05;;
21258;SDS011;10787;53.364;-1.480;2022-08-20T06:42:53;11.27;;;2.92;;
21258;SDS011;10787;53.364;-1.480;2022-08-20T06:45:22;7.68;;;3.17;;
21258;SDS011;10787;53.364;-1.480;2022-08-20T06:47:50;9.43;;;2.88;;
21258;SDS011;10787;53.364;-1.480;2022-08-20T06:50:34;9.73;;;3.00;;
21258;SDS011;10787;53.364;-1.480;2022-08-20T06:53:06;9.15;;;3.17;;
21258;SDS011;10787;53.364;-1.480;2022-08-20T06:55:38;10.48;;;2.80;;
21258;SDS011;10787;53.364;-1.480;2022-08-20T06:58:07;8.70;;;2.92;;
21258;SDS011;10787;53.364;-1.480;2022-08-20T07:00:35;9.98;;;2.88;;
21258;SDS011;10787;53.364;-1.480;2022-08-20T07:03:02;8.43;;;2.83;;
21258;SDS011;10787;53.364;-1.480;2022-08-20T07:05:29;10.15;;;3.15;;
21258;SDS011;10787;53.364;-1.480;2022-08-20T07:08:00;9.63;;;2.80;;
21258;SDS011;10787;53.364;-1.480;2022-08-20T07:10:27;8.43;;;3.13;;
21258;SDS011;10787;53.364;-1.480;2022-08-20T07:12:54;6.20;;;2.72;;
21258;SDS011;10787;53.364;-1.480;2022-08-20T07:15:21;10.30;;;2.83;;
21258;SDS011;10787;53.364;-1.480;2022-08-20T07:17:58;9.23;;;2.92;;
21258;SDS011;10787;53.364;-1.480;2022-08-20T07:20:26;11.15;;;2.88;;
21258;SDS011;10787;53.364;-1.480;2022-08-20T07:22:54;7.30;;;2.75;;
21258;SDS011;10787;53.364;-1.480;2022-08-20T07:25:20;10.10;;;2.78;;
21258;SDS011;10787;53.364;-1.480;2022-08-20T07:27:47;11.15;;;2.88;;
21258;SDS011;10787;53.364;-1.480;2022-08-20T07:30:15;10.48;;;3.10;;
21258;SDS011;10787;53.364;-1.480;2022-08-20T07:33:06;10.00;;;2.67;;
21258;SDS011;10787;53.364;-1.480;2022-08-20T07:35:33;11.02;;;3.17;;
21258;SDS011;10787;53.364;-1.480;2022-08-20T07:37:59;8.32;;;2.60;;
21258;SDS011;10787;53.364;-1.480;2022-08-20T07:40:30;10.55;;;2.95;;
21258;SDS011;10787;53.364;-1.480;2022-08-20T07:42:58;9.57;;;2.70;;
21258;SDS011;10787;53.364;-1.480;2022-08-20T07:45:27;7.65;;;2.88;;
21258;SDS011;10787;53.364;-1.480;2022-08-20T07:47:58;12.18;;;2.83;;
21258;SDS011;10787;53.364;-1.480;2022-08-20T07:50:31;13.15;;;3.13;;
21258;SDS011;10787;53.364;-1.480;2022-08-20T07:52:57;11.15;;;2.72;;
21258;SDS011;10787;53.364;-1.480;2022-08-20T07:55:24;8.95;;;2.53;;
21258;SDS011;10787;53.364;-1.480;2022-08-20T07:57:50;11.07;;;3.08;;
21258;SDS011;10787;53.364;-1.480;2022-08-20T08:00:17;10.65;;;2.70;;
21258;SDS011;10787;53.364;-1.480;2022-08-20T08:02:45;10.18;;;3.10;;
21258;SDS011;10787;53.364;-1.480;2022-08-20T08:05:11;10.52;;;3.20;;
21258;SDS011;10787;53.364;-1.480;2022-08-20T08:07:37;11.48;;;3.13;;
21258;SDS011;10787;53.364;-1.480;2022-08-20T08:10:04;10.63;;;2.97;;
21258;SDS011;10787;53.364;-1.480;2022-08-20T08:12:34;9.32;;;3.17;;
21258;SDS011;10787;53.364;-1.480;2022-08-20T08:15:03;7.95;;;2.70;;
21258;SDS011;10787;53.364;-1.480;2022-08-20T08:17:31;10.30;;;3.00;;
21258;SDS011;10787;53.364;-1.480;2022-08-20T08:19:58;7.30;;;2.65;;
21258;SDS011;10787;53.364;-1.480;2022-08-20T08:22:24;10.35;;;2.60;;
21258;SDS011;10787;53.364;-1.480;2022-08-20T08:24:50;10.68;;;2.95;;
21258;SDS011;10787;53.364;-1.480;2022-08-20T08:27:16;10.63;;;2.78;;
21258;SDS011;10787;53.364;-1.480;2022-08-20T08:29:43;9.93;;;3.13;;
21258;SDS011;10787;53.364;-1.480;2022-08-20T08:32:09;9.32;;;2.65;;
21258;SDS011;10787;53.364;-1.480;2022-08-20T08:34:36;10.45;;;2.90;;
21258;SDS011;10787;53.364;-1.480;2022-08-20T08:37:03;7.00;;;2.65;;
21258;SDS011;10787;53.364;-1.480;2022-08-20T08:39:30;6.57;;;2.35;;
21258;SDS011;10787;53.364;-1.480;2022-08-20T08:41:58;9.68;;;2.95;;
21258;SDS011;10787;53.364;-1.480;2022-08-20T08:44:30;8.88;;;2.60;;
21258;SDS011;10787;53.364;-1.480;2022-08-20T08:47:11;9.35;;;2.67;;
21258;SDS011;10787;53.364;-1.480;2022-08-20T08:49:49;6.45;;;2.30;;
21258;SDS011;10787;53.364;-1.480;2022-08-20T08:54:45;7.63;;;2.35;;
21258;SDS011;10787;53.364;-1.480;2022-08-20T08:57:13;9.00;;;2.55;;
21258;SDS011;10787;53.364;-1.480;2022-08-20T08:59:39;9.57;;;2.80;;
21258;SDS011;10787;53.364;-1.480;2022-08-20T09:02:06;7.90;;;2.53;;
21258;SDS011;10787;53.364;-1.480;2022-08-20T09:04:36;6.90;;;2.60;;
21258;SDS011;10787;53.364;-1.480;2022-08-20T09:07:06;9.15;;;2.78;;
21258;SDS011;10787;53.364;-1.480;2022-08-20T09:09:40;6.85;;;2.45;;
21258;SDS011;10787;53.364;-1.480;2022-08-20T09:12:09;7.68;;;2.40;;
21258;SDS011;10787;53.364;-1.480;2022-08-20T09:14:37;6.43;;;2.50;;
21258;SDS011;10787;53.364;-1.480;2022-08-20T09:17:03;7.45;;;2.42;;
21258;SDS011;10787;53.364;-1.480;2022-08-20T09:19:29;6.70;;;2.42;;
21258;SDS011;10787;53.364;-1.480;2022-08-20T09:21:55;9.35;;;2.63;;
21258;SDS011;10787;53.364;-1.480;2022-08-20T09:24:21;6.85;;;2.28;;
21258;SDS011;10787;53.364;-1.480;2022-08-20T09:26:46;7.93;;;2.42;;
21258;SDS011;10787;53.364;-1.480;2022-08-20T09:29:13;6.47;;;2.35;;
21258;SDS011;10787;53.364;-1.480;2022-08-20T09:31:38;7.55;;;2.47;;
21258;SDS011;10787;53.364;-1.480;2022-08-20T09:34:04;11.07;;;2.90;;
21258;SDS011;10787;53.364;-1.480;2022-08-20T09:36:31;7.75;;;2.60;;
21258;SDS011;10787;53.364;-1.480;2022-08-20T09:38:57;6.03;;;2.40;;
21258;SDS011;10787;53.364;-1.480;2022-08-20T09:41:24;8.32;;;2.28;;
21258;SDS011;10787;53.364;-1.480;2022-08-20T09:43:49;5.43;;;2.10;;
21258;SDS011;10787;53.364;-1.480;2022-08-20T09:46:15;7.63;;;2.47;;
21258;SDS011;10787;53.364;-1.480;2022-08-20T09:48:41;8.30;;;2.50;;
21258;SDS011;10787;53.364;-1.480;2022-08-20T09:51:07;6.65;;;2.17;;
21258;SDS011;10787;53.364;-1.480;2022-08-20T09:53:33;7.10;;;2.20;;
21258;SDS011;10787;53.364;-1.480;2022-08-20T09:55:59;5.03;;;2.45;;
21258;SDS011;10787;53.364;-1.480;2022-08-20T10:01:29;6.85;;;2.53;;
21258;SDS011;10787;53.364;-1.480;2022-08-20T10:03:56;7.00;;;2.33;;
21258;SDS011;10787;53.364;-1.480;2022-08-20T10:06:22;10.10;;;3.03;;
21258;SDS011;10787;53.364;-1.480;2022-08-20T10:08:48;5.78;;;2.22;;
21258;SDS011;10787;53.364;-1.480;2022-08-20T10:11:14;9.43;;;2.78;;
21258;SDS011;10787;53.364;-1.480;2022-08-20T10:13:43;8.05;;;2.80;;
21258;SDS011;10787;53.364;-1.480;2022-08-20T10:16:09;6.70;;;2.33;;
21258;SDS011;10787;53.364;-1.480;2022-08-20T10:18:35;6.13;;;2.40;;
21258;SDS011;10787;53.364;-1.480;2022-08-20T10:21:01;5.72;;;2.50;;
21258;SDS011;10787;53.364;-1.480;2022-08-20T10:23:27;6.55;;;2.47;;
21258;SDS011;10787;53.364;-1.480;2022-08-20T10:25:53;7.47;;;2.38;;
21258;SDS011;10787;53.364;-1.480;2022-08-20T10:28:19;5.80;;;2.40;;
21258;SDS011;10787;53.364;-1.480;2022-08-20T10:30:45;7.32;;;2.50;;
21258;SDS011;10787;53.364;-1.480;2022-08-20T10:33:14;4.72;;;2.55;;
21258;SDS011;10787;53.364;-1.480;2022-08-20T10:35:39;4.60;;;2.30;;
21258;SDS011;10787;53.364;-1.480;2022-08-20T10:38:05;7.95;;;2.60;;
21258;SDS011;10787;53.364;-1.480;2022-08-20T10:40:31;5.53;;;2.47;;
21258;SDS011;10787;53.364;-1.480;2022-08-20T10:42:57;6.47;;;2.50;;
21258;SDS011;10787;53.364;-1.480;2022-08-20T10:45:23;6.38;;;2.67;;
21258;SDS011;10787;53.364;-1.480;2022-08-20T10:47:50;6.45;;;2.20;;
21258;SDS011;10787;53.364;-1.480;2022-08-20T10:50:16;7.47;;;2.47;;
21258;SDS011;10787;53.364;-1.480;2022-08-20T10:52:46;5.80;;;2.22;;
21258;SDS011;10787;53.364;-1.480;2022-08-20T10:55:12;7.28;;;2.83;;
21258;SDS011;10787;53.364;-1.480;2022-08-20T10:57:38;8.48;;;2.67;;
21258;SDS011;10787;53.364;-1.480;2022-08-20T11:00:06;6.63;;;2.88;;
21258;SDS011;10787;53.364;-1.480;2022-08-20T11:02:34;6.10;;;2.67;;
21258;SDS011;10787;53.364;-1.480;2022-08-20T11:05:00;6.07;;;2.55;;
21258;SDS011;10787;53.364;-1.480;2022-08-20T11:09:57;7.03;;;2.75;;
21258;SDS011;10787;53.364;-1.480;2022-08-20T11:12:24;6.50;;;2.88;;
21258;SDS011;10787;53.364;-1.480;2022-08-20T11:14:50;7.57;;;2.70;;
21258;SDS011;10787;53.364;-1.480;2022-08-20T11:17:21;6.90;;;2.78;;
21258;SDS011;10787;53.364;-1.480;2022-08-20T11:19:52;6.18;;;2.70;;
21258;SDS011;10787;53.364;-1.480;2022-08-20T11:22:19;6.32;;;2.60;;
21258;SDS011;10787;53.364;-1.480;2022-08-20T11:24:46;5.43;;;2.80;;
21258;SDS011;10787;53.364;-1.480;2022-08-20T11:27:14;7.57;;;2.90;;
21258;SDS011;10787;53.364;-1.480;2022-08-20T11:29:48;7.28;;;2.97;;
21258;SDS011;10787;53.364;-1.480;2022-08-20T11:32:14;6.22;;;2.70;;
21258;SDS011;10787;53.364;-1.480;2022-08-20T11:34:40;6.00;;;2.65;;
21258;SDS011;10787;53.364;-1.480;2022-08-20T11:37:06;6.63;;;2.75;;
21258;SDS011;10787;53.364;-1.480;2022-08-20T11:39:31;5.25;;;2.40;;
21258;SDS011;10787;53.364;-1.480;2022-08-20T11:41:57;7.63;;;2.60;;
21258;SDS011;10787;53.364;-1.480;2022-08-20T11:44:23;6.63;;;2.70;;
21258;SDS011;10787;53.364;-1.480;2022-08-20T11:46:49;7.07;;;2.60;;
21258;SDS011;10787;53.364;-1.480;2022-08-20T11:49:15;7.38;;;3.55;;
21258;SDS011;10787;53.364;-1.480;2022-08-20T11:51:41;6.50;;;2.85;;
21258;SDS011;10787;53.364;-1.480;2022-08-20T11:54:07;5.85;;;2.38;;
21258;SDS011;10787;53.364;-1.480;2022-08-20T11:56:33;5.55;;;2.40;;
21258;SDS011;10787;53.364;-1.480;2022-08-20T11:58:58;6.82;;;2.78;;
21258;SDS011;10787;53.364;-1.480;2022-08-20T12:01:24;6.32;;;2.50;;
21258;SDS011;10787;53.364;-1.480;2022-08-20T12:03:50;5.80;;;2.80;;
21258;SDS011;10787;53.364;-1.480;2022-08-20T12:06:16;3.70;;;2.40;;
21258;SDS011;10787;53.364;-1.480;2022-08-20T12:08:41;6.43;;;2.33;;
21258;SDS011;10787;53.364;-1.480;2022-08-20T12:11:07;3.90;;;2.40;;
21258;SDS011;10787;53.364;-1.480;2022-08-20T12:13:34;5.50;;;2.40;;
21258;SDS011;10787;53.364;-1.480;2022-08-20T12:16:01;5.03;;;2.40;;
21258;SDS011;10787;53.364;-1.480;2022-08-20T12:18:27;6.07;;;2.55;;
21258;SDS011;10787;53.364;-1.480;2022-08-20T12:20:53;5.28;;;2.60;;
21258;SDS011;10787;53.364;-1.480;2022-08-20T12:23:19;6.90;;;2.58;;
21258;SDS011;10787;53.364;-1.480;2022-08-20T12:25:45;6.22;;;2.55;;
21258;SDS011;10787;53.364;-1.480;2022-08-20T12:28:11;5.82;;;2.70;;
21258;SDS011;10787;53.364;-1.480;2022-08-20T12:30:37;7.07;;;2.70;;
21258;SDS011;10787;53.364;-1.480;2022-08-20T12:33:03;4.40;;;2.60;;
21258;SDS011;10787;53.364;-1.480;2022-08-20T12:35:29;8.32;;;2.50;;
21258;SDS011;10787;53.364;-1.480;2022-08-20T12:37:56;5.65;;;2.70;;
21258;SDS011;10787;53.364;-1.480;2022-08-20T12:40:26;8.13;;;2.63;;
21258;SDS011;10787;53.364;-1.480;2022-08-20T12:42:52;6.75;;;2.60;;
21258;SDS011;10787;53.364;-1.480;2022-08-20T12:45:19;7.53;;;2.47;;
21258;SDS011;10787;53.364;-1.480;2022-08-20T12:47:47;8.98;;;2.80;;
21258;SDS011;10787;53.364;-1.480;2022-08-20T12:50:16;6.03;;;2.50;;
21258;SDS011;10787;53.364;-1.480;2022-08-20T12:52:44;7.25;;;2.67;;
21258;SDS011;10787;53.364;-1.480;2022-08-20T12:55:13;5.68;;;2.60;;
21258;SDS011;10787;53.364;-1.480;2022-08-20T12:57:45;5.05;;;2.63;;
21258;SDS011;10787;53.364;-1.480;2022-08-20T13:00:18;5.45;;;2.67;;
21258;SDS011;10787;53.364;-1.480;2022-08-20T13:02:47;5.95;;;2.80;;
21258;SDS011;10787;53.364;-1.480;2022-08-20T13:05:14;6.90;;;2.80;;
21258;SDS011;10787;53.364;-1.480;2022-08-20T13:07:40;5.90;;;2.60;;
21258;SDS011;10787;53.364;-1.480;2022-08-20T13:10:08;5.18;;;2.28;;
21258;SDS011;10787;53.364;-1.480;2022-08-20T13:12:37;6.93;;;3.00;;
21258;SDS011;10787;53.364;-1.480;2022-08-20T13:15:03;6.43;;;2.63;;
21258;SDS011;10787;53.364;-1.480;2022-08-20T13:17:29;7.50;;;3.00;;
21258;SDS011;10787;53.364;-1.480;2022-08-20T13:19:55;5.65;;;2.95;;
21258;SDS011;10787;53.364;-1.480;2022-08-20T13:22:21;6.32;;;2.67;;
21258;SDS011;10787;53.364;-1.480;2022-08-20T13:24:46;7.82;;;3.22;;
21258;SDS011;10787;53.364;-1.480;2022-08-20T13:27:13;5.55;;;2.80;;
21258;SDS011;10787;53.364;-1.480;2022-08-20T13:29:51;7.75;;;2.80;;
21258;SDS011;10787;53.364;-1.480;2022-08-20T13:32:18;7.30;;;2.50;;
21258;SDS011;10787;53.364;-1.480;2022-08-20T13:34:45;4.97;;;2.60;;
21258;SDS011;10787;53.364;-1.480;2022-08-20T13:39:41;6.13;;;2.70;;
21258;SDS011;10787;53.364;-1.480;2022-08-20T13:42:08;6.22;;;2.53;;
21258;SDS011;10787;53.364;-1.480;2022-08-20T13:44:34;6.45;;;2.60;;
21258;SDS011;10787;53.364;-1.480;2022-08-20T13:47:11;5.93;;;2.70;;
21258;SDS011;10787;53.364;-1.480;2022-08-20T13:49:42;5.82;;;2.60;;
21258;SDS011;10787;53.364;-1.480;2022-08-20T13:52:08;8.25;;;2.50;;
21258;SDS011;10787;53.364;-1.480;2022-08-20T13:54:34;6.03;;;2.90;;
21258;SDS011;10787;53.364;-1.480;2022-08-20T13:57:03;5.85;;;2.80;;
21258;SDS011;10787;53.364;-1.480;2022-08-20T13:59:40;6.13;;;2.83;;
21258;SDS011;10787;53.364;-1.480;2022-08-20T14:02:10;7.13;;;2.60;;
21258;SDS011;10787;53.364;-1.480;2022-08-20T14:04:38;4.80;;;2.63;;
21258;SDS011;10787;53.364;-1.480;2022-08-20T14:07:11;8.25;;;2.50;;
21258;SDS011;10787;53.364;-1.480;2022-08-20T14:09:39;3.97;;;2.50;;
21258;SDS011;10787;53.364;-1.480;2022-08-20T14:12:07;5.20;;;2.70;;
21258;SDS011;10787;53.364;-1.480;2022-08-20T14:14:33;4.40;;;2.60;;
21258;SDS011;10787;53.364;-1.480;2022-08-20T14:17:13;5.20;;;2.50;;
21258;SDS011;10787;53.364;-1.480;2022-08-20T14:19:45;5.43;;;2.67;;
21258;SDS011;10787;53.364;-1.480;2022-08-20T14:22:12;6.90;;;2.70;;
21258;SDS011;10787;53.364;-1.480;2022-08-20T14:24:38;6.03;;;2.60;;
21258;SDS011;10787;53.364;-1.480;2022-08-20T14:27:05;6.10;;;2.70;;
21258;SDS011;10787;53.364;-1.480;2022-08-20T14:29:32;3.70;;;2.20;;
21258;SDS011;10787;53.364;-1.480;2022-08-20T14:32:00;4.80;;;2.40;;
21258;SDS011;10787;53.364;-1.480;2022-08-20T14:34:27;5.72;;;2.53;;
21258;SDS011;10787;53.364;-1.480;2022-08-20T14:36:54;6.75;;;2.80;;
21258;SDS011;10787;53.364;-1.480;2022-08-20T14:39:21;5.60;;;2.63;;
21258;SDS011;10787;53.364;-1.480;2022-08-20T14:41:49;5.07;;;2.90;;
21258;SDS011;10787;53.364;-1.480;2022-08-20T14:44:15;6.38;;;2.55;;
21258;SDS011;10787;53.364;-1.480;2022-08-20T14:46:41;4.63;;;2.33;;
21258;SDS011;10787;53.364;-1.480;2022-08-20T14:49:06;6.93;;;2.90;;
21258;SDS011;10787;53.364;-1.480;2022-08-20T14:51:32;5.78;;;2.72;;
21258;SDS011;10787;53.364;-1.480;2022-08-20T14:53:58;4.90;;;2.60;;